sensor_id;sensor_type;location;lat;lon;timestamp;P1;durP1;ratioP1;P2;durP2;ratioP2
4424;SDS011;2225;53.568;13.266;2022-09-21T00:01:20;5.23;;;2.00;;
4424;SDS011;2225;53.568;13.266;2022-09-21T00:03:53;5.67;;;2.53;;
4424;SDS011;2225;53.568;13.266;2022-09-21T00:06:24;6.97;;;2.50;;
4424;SDS011;2225;53.568;13.266;2022-09-21T00:08:53;5.03;;;2.60;;
4424;SDS011;2225;53.568;13.266;2022-09-21T00:11:23;6.57;;;2.07;;
4424;SDS011;2225;53.568;13.266;2022-09-21T00:13:54;4.63;;;2.37;;
4424;SDS011;2225;53.568;13.266;2022-09-21T00:16:29;7.27;;;2.50;;
4424;SDS011;2225;53.568;13.266;2022-09-21T00:18:57;7.27;;;2.33;;
4424;SDS011;2225;53.568;13.266;2022-09-21T00:21:25;6.93;;;2.50;;
4424;SDS011;2225;53.568;13.266;2022-09-21T00:23:53;6.30;;;2.40;;
4424;SDS011;2225;53.568;13.266;2022-09-21T00:26:21;6.50;;;2.37;;
4424;SDS011;2225;53.568;13.266;2022-09-21T00:28:54;7.70;;;2.40;;
4424;SDS011;2225;53.568;13.266;2022-09-21T00:31:23;4.03;;;1.97;;
4424;SDS011;2225;53.568;13.266;2022-09-21T00:33:51;7.73;;;2.70;;
4424;SDS011;2225;53.568;13.266;2022-09-21T00:36:20;8.33;;;2.20;;
4424;SDS011;2225;53.568;13.266;2022-09-21T00:38:50;9.73;;;2.20;;
4424;SDS011;2225;53.568;13.266;2022-09-21T00:41:20;6.90;;;2.27;;
4424;SDS011;2225;53.568;13.266;2022-09-21T00:43:48;5.87;;;2.20;;
4424;SDS011;2225;53.568;13.266;2022-09-21T00:46:43;8.60;;;2.10;;
4424;SDS011;2225;53.568;13.266;2022-09-21T00:49:12;5.87;;;2.50;;
4424;SDS011;2225;53.568;13.266;2022-09-21T00:51:40;5.10;;;2.33;;
4424;SDS011;2225;53.568;13.266;2022-09-21T00:54:09;6.23;;;2.57;;
4424;SDS011;2225;53.568;13.266;2022-09-21T00:56:41;5.30;;;2.47;;
4424;SDS011;2225;53.568;13.266;2022-09-21T00:59:09;9.10;;;2.80;;
4424;SDS011;2225;53.568;13.266;2022-09-21T01:01:38;5.63;;;2.37;;
4424;SDS011;2225;53.568;13.266;2022-09-21T01:04:06;6.00;;;2.90;;
4424;SDS011;2225;53.568;13.266;2022-09-21T01:06:34;9.17;;;2.43;;
4424;SDS011;2225;53.568;13.266;2022-09-21T01:09:03;6.50;;;2.00;;
4424;SDS011;2225;53.568;13.266;2022-09-21T01:11:41;4.87;;;2.30;;
4424;SDS011;2225;53.568;13.266;2022-09-21T01:17:36;4.60;;;2.20;;
4424;SDS011;2225;53.568;13.266;2022-09-21T01:23:30;6.90;;;2.27;;
4424;SDS011;2225;53.568;13.266;2022-09-21T01:29:36;7.20;;;3.00;;
4424;SDS011;2225;53.568;13.266;2022-09-21T01:32:17;6.47;;;2.50;;
4424;SDS011;2225;53.568;13.266;2022-09-21T01:38:02;4.63;;;2.13;;
4424;SDS011;2225;53.568;13.266;2022-09-21T01:40:37;5.53;;;2.43;;
4424;SDS011;2225;53.568;13.266;2022-09-21T01:43:08;7.40;;;2.50;;
4424;SDS011;2225;53.568;13.266;2022-09-21T01:45:44;4.80;;;2.13;;
4424;SDS011;2225;53.568;13.266;2022-09-21T01:48:15;5.83;;;2.17;;
4424;SDS011;2225;53.568;13.266;2022-09-21T01:50:44;8.27;;;2.50;;
4424;SDS011;2225;53.568;13.266;2022-09-21T01:53:19;5.33;;;2.20;;
4424;SDS011;2225;53.568;13.266;2022-09-21T01:56:12;12.23;;;2.20;;
4424;SDS011;2225;53.568;13.266;2022-09-21T01:59:12;6.30;;;2.27;;
4424;SDS011;2225;53.568;13.266;2022-09-21T02:01:57;5.60;;;2.23;;
4424;SDS011;2225;53.568;13.266;2022-09-21T02:04:39;7.00;;;2.77;;
4424;SDS011;2225;53.568;13.266;2022-09-21T02:07:06;8.83;;;2.40;;
4424;SDS011;2225;53.568;13.266;2022-09-21T02:09:35;4.50;;;2.00;;
4424;SDS011;2225;53.568;13.266;2022-09-21T02:12:02;4.50;;;2.40;;
4424;SDS011;2225;53.568;13.266;2022-09-21T02:14:30;4.83;;;2.50;;
4424;SDS011;2225;53.568;13.266;2022-09-21T02:17:05;5.10;;;2.47;;
4424;SDS011;2225;53.568;13.266;2022-09-21T02:20:05;6.17;;;2.70;;
4424;SDS011;2225;53.568;13.266;2022-09-21T02:22:48;4.97;;;2.20;;
4424;SDS011;2225;53.568;13.266;2022-09-21T02:25:37;13.90;;;2.73;;
4424;SDS011;2225;53.568;13.266;2022-09-21T02:31:11;6.60;;;2.47;;
4424;SDS011;2225;53.568;13.266;2022-09-21T02:33:47;6.20;;;2.50;;
4424;SDS011;2225;53.568;13.266;2022-09-21T02:36:30;4.63;;;2.33;;
4424;SDS011;2225;53.568;13.266;2022-09-21T02:39:12;8.20;;;2.93;;
4424;SDS011;2225;53.568;13.266;2022-09-21T02:44:41;5.80;;;2.80;;
4424;SDS011;2225;53.568;13.266;2022-09-21T02:47:27;9.50;;;3.20;;
4424;SDS011;2225;53.568;13.266;2022-09-21T02:50:03;6.27;;;3.00;;
4424;SDS011;2225;53.568;13.266;2022-09-21T02:52:35;5.63;;;2.83;;
4424;SDS011;2225;53.568;13.266;2022-09-21T02:55:06;6.20;;;3.30;;
4424;SDS011;2225;53.568;13.266;2022-09-21T02:57:34;6.70;;;3.63;;
4424;SDS011;2225;53.568;13.266;2022-09-21T03:00:04;9.07;;;3.93;;
4424;SDS011;2225;53.568;13.266;2022-09-21T03:02:39;7.10;;;3.53;;
4424;SDS011;2225;53.568;13.266;2022-09-21T03:05:09;6.80;;;3.60;;
4424;SDS011;2225;53.568;13.266;2022-09-21T03:07:38;7.23;;;3.80;;
4424;SDS011;2225;53.568;13.266;2022-09-21T03:10:06;7.83;;;4.70;;
4424;SDS011;2225;53.568;13.266;2022-09-21T03:12:34;6.73;;;4.00;;
4424;SDS011;2225;53.568;13.266;2022-09-21T03:15:02;8.60;;;4.30;;
4424;SDS011;2225;53.568;13.266;2022-09-21T03:17:29;6.40;;;3.90;;
4424;SDS011;2225;53.568;13.266;2022-09-21T03:19:56;6.47;;;3.90;;
4424;SDS011;2225;53.568;13.266;2022-09-21T03:22:23;8.23;;;5.00;;
4424;SDS011;2225;53.568;13.266;2022-09-21T03:24:50;8.00;;;3.77;;
4424;SDS011;2225;53.568;13.266;2022-09-21T03:27:18;10.77;;;5.50;;
4424;SDS011;2225;53.568;13.266;2022-09-21T03:29:46;10.43;;;5.20;;
4424;SDS011;2225;53.568;13.266;2022-09-21T03:32:13;7.40;;;4.40;;
4424;SDS011;2225;53.568;13.266;2022-09-21T03:34:40;10.37;;;4.10;;
4424;SDS011;2225;53.568;13.266;2022-09-21T03:37:08;7.13;;;3.90;;
4424;SDS011;2225;53.568;13.266;2022-09-21T03:39:35;14.90;;;4.57;;
4424;SDS011;2225;53.568;13.266;2022-09-21T03:42:03;9.20;;;4.07;;
4424;SDS011;2225;53.568;13.266;2022-09-21T03:44:30;7.70;;;4.40;;
4424;SDS011;2225;53.568;13.266;2022-09-21T03:46:57;15.50;;;4.80;;
4424;SDS011;2225;53.568;13.266;2022-09-21T03:49:24;7.90;;;4.43;;
4424;SDS011;2225;53.568;13.266;2022-09-21T03:51:51;7.60;;;4.10;;
4424;SDS011;2225;53.568;13.266;2022-09-21T03:54:18;9.47;;;4.40;;
4424;SDS011;2225;53.568;13.266;2022-09-21T03:56:46;8.43;;;3.83;;
4424;SDS011;2225;53.568;13.266;2022-09-21T03:59:13;6.63;;;3.37;;
4424;SDS011;2225;53.568;13.266;2022-09-21T04:01:40;7.77;;;3.87;;
4424;SDS011;2225;53.568;13.266;2022-09-21T04:04:07;12.40;;;3.73;;
4424;SDS011;2225;53.568;13.266;2022-09-21T04:06:35;6.77;;;3.47;;
4424;SDS011;2225;53.568;13.266;2022-09-21T04:09:02;7.57;;;3.83;;
4424;SDS011;2225;53.568;13.266;2022-09-21T04:11:29;9.13;;;3.90;;
4424;SDS011;2225;53.568;13.266;2022-09-21T04:13:57;6.47;;;3.60;;
4424;SDS011;2225;53.568;13.266;2022-09-21T04:16:25;5.73;;;3.40;;
4424;SDS011;2225;53.568;13.266;2022-09-21T04:18:52;6.40;;;3.67;;
4424;SDS011;2225;53.568;13.266;2022-09-21T04:21:19;6.07;;;3.60;;
4424;SDS011;2225;53.568;13.266;2022-09-21T04:23:47;7.10;;;4.20;;
4424;SDS011;2225;53.568;13.266;2022-09-21T04:26:22;8.07;;;4.00;;
4424;SDS011;2225;53.568;13.266;2022-09-21T04:28:52;7.50;;;3.63;;
4424;SDS011;2225;53.568;13.266;2022-09-21T04:31:20;11.20;;;3.87;;
4424;SDS011;2225;53.568;13.266;2022-09-21T04:33:49;12.10;;;5.20;;
4424;SDS011;2225;53.568;13.266;2022-09-21T04:36:18;6.60;;;3.87;;
4424;SDS011;2225;53.568;13.266;2022-09-21T04:38:47;7.73;;;3.97;;
4424;SDS011;2225;53.568;13.266;2022-09-21T04:41:14;9.33;;;5.00;;
4424;SDS011;2225;53.568;13.266;2022-09-21T04:43:41;8.87;;;4.30;;
4424;SDS011;2225;53.568;13.266;2022-09-21T04:46:14;6.90;;;3.93;;
4424;SDS011;2225;53.568;13.266;2022-09-21T04:48:43;8.90;;;4.50;;
4424;SDS011;2225;53.568;13.266;2022-09-21T04:51:11;10.40;;;4.57;;
4424;SDS011;2225;53.568;13.266;2022-09-21T04:53:40;8.37;;;4.20;;
4424;SDS011;2225;53.568;13.266;2022-09-21T04:56:09;8.30;;;4.60;;
4424;SDS011;2225;53.568;13.266;2022-09-21T04:58:39;8.90;;;4.87;;
4424;SDS011;2225;53.568;13.266;2022-09-21T05:01:06;10.37;;;5.27;;
4424;SDS011;2225;53.568;13.266;2022-09-21T05:03:33;8.83;;;4.70;;
4424;SDS011;2225;53.568;13.266;2022-09-21T05:06:00;8.50;;;5.37;;
4424;SDS011;2225;53.568;13.266;2022-09-21T05:08:27;9.90;;;5.83;;
4424;SDS011;2225;53.568;13.266;2022-09-21T05:11:14;9.73;;;5.90;;
4424;SDS011;2225;53.568;13.266;2022-09-21T05:13:46;9.77;;;6.33;;
4424;SDS011;2225;53.568;13.266;2022-09-21T05:16:14;11.43;;;6.23;;
4424;SDS011;2225;53.568;13.266;2022-09-21T05:18:42;10.40;;;5.50;;
4424;SDS011;2225;53.568;13.266;2022-09-21T05:21:10;8.83;;;5.80;;
4424;SDS011;2225;53.568;13.266;2022-09-21T05:23:38;9.70;;;5.87;;
4424;SDS011;2225;53.568;13.266;2022-09-21T05:26:06;9.80;;;6.40;;
4424;SDS011;2225;53.568;13.266;2022-09-21T05:28:33;10.60;;;6.50;;
4424;SDS011;2225;53.568;13.266;2022-09-21T05:33:49;13.63;;;7.03;;
4424;SDS011;2225;53.568;13.266;2022-09-21T05:36:40;9.43;;;5.70;;
4424;SDS011;2225;53.568;13.266;2022-09-21T05:39:27;10.70;;;5.03;;
4424;SDS011;2225;53.568;13.266;2022-09-21T05:41:55;9.20;;;5.50;;
4424;SDS011;2225;53.568;13.266;2022-09-21T05:44:22;11.17;;;6.20;;
4424;SDS011;2225;53.568;13.266;2022-09-21T05:46:53;12.60;;;6.57;;
4424;SDS011;2225;53.568;13.266;2022-09-21T05:49:48;8.83;;;5.07;;
4424;SDS011;2225;53.568;13.266;2022-09-21T05:52:37;13.23;;;5.50;;
4424;SDS011;2225;53.568;13.266;2022-09-21T06:04:09;17.13;;;5.77;;
4424;SDS011;2225;53.568;13.266;2022-09-21T06:06:39;10.07;;;5.83;;
4424;SDS011;2225;53.568;13.266;2022-09-21T06:09:06;9.23;;;6.20;;
4424;SDS011;2225;53.568;13.266;2022-09-21T06:11:33;13.10;;;6.37;;
4424;SDS011;2225;53.568;13.266;2022-09-21T06:14:00;12.60;;;8.30;;
4424;SDS011;2225;53.568;13.266;2022-09-21T06:16:41;16.10;;;8.33;;
4424;SDS011;2225;53.568;13.266;2022-09-21T06:19:11;16.10;;;9.03;;
4424;SDS011;2225;53.568;13.266;2022-09-21T06:21:38;11.47;;;7.43;;
4424;SDS011;2225;53.568;13.266;2022-09-21T06:24:05;12.00;;;8.00;;
4424;SDS011;2225;53.568;13.266;2022-09-21T06:26:32;12.83;;;7.00;;
4424;SDS011;2225;53.568;13.266;2022-09-21T06:29:00;11.10;;;6.60;;
4424;SDS011;2225;53.568;13.266;2022-09-21T06:31:26;13.23;;;6.63;;
4424;SDS011;2225;53.568;13.266;2022-09-21T06:33:53;11.77;;;6.87;;
4424;SDS011;2225;53.568;13.266;2022-09-21T06:36:20;10.17;;;6.57;;
4424;SDS011;2225;53.568;13.266;2022-09-21T06:38:47;15.53;;;6.13;;
4424;SDS011;2225;53.568;13.266;2022-09-21T06:41:14;19.00;;;6.53;;
4424;SDS011;2225;53.568;13.266;2022-09-21T06:43:46;9.80;;;5.77;;
4424;SDS011;2225;53.568;13.266;2022-09-21T06:46:13;11.70;;;6.40;;
4424;SDS011;2225;53.568;13.266;2022-09-21T06:48:40;9.60;;;5.70;;
4424;SDS011;2225;53.568;13.266;2022-09-21T06:51:08;10.50;;;5.60;;
4424;SDS011;2225;53.568;13.266;2022-09-21T06:53:35;11.60;;;6.10;;
4424;SDS011;2225;53.568;13.266;2022-09-21T06:56:02;9.37;;;5.40;;
4424;SDS011;2225;53.568;13.266;2022-09-21T06:58:31;9.53;;;5.13;;
4424;SDS011;2225;53.568;13.266;2022-09-21T07:01:03;11.63;;;5.63;;
4424;SDS011;2225;53.568;13.266;2022-09-21T07:03:36;11.87;;;5.80;;
4424;SDS011;2225;53.568;13.266;2022-09-21T07:06:05;12.40;;;5.70;;
4424;SDS011;2225;53.568;13.266;2022-09-21T07:08:33;10.20;;;5.37;;
4424;SDS011;2225;53.568;13.266;2022-09-21T07:11:21;13.90;;;5.30;;
4424;SDS011;2225;53.568;13.266;2022-09-21T07:13:49;11.40;;;5.50;;
4424;SDS011;2225;53.568;13.266;2022-09-21T07:16:16;10.17;;;4.50;;
4424;SDS011;2225;53.568;13.266;2022-09-21T07:18:44;8.00;;;4.23;;
4424;SDS011;2225;53.568;13.266;2022-09-21T07:21:11;17.37;;;4.47;;
4424;SDS011;2225;53.568;13.266;2022-09-21T07:23:39;8.43;;;3.77;;
4424;SDS011;2225;53.568;13.266;2022-09-21T07:26:08;10.00;;;4.07;;
4424;SDS011;2225;53.568;13.266;2022-09-21T07:28:38;6.67;;;3.43;;
4424;SDS011;2225;53.568;13.266;2022-09-21T07:31:06;8.17;;;4.30;;
4424;SDS011;2225;53.568;13.266;2022-09-21T07:33:41;6.37;;;3.43;;
4424;SDS011;2225;53.568;13.266;2022-09-21T07:36:11;5.70;;;2.70;;
4424;SDS011;2225;53.568;13.266;2022-09-21T07:38:39;6.80;;;2.60;;
4424;SDS011;2225;53.568;13.266;2022-09-21T07:41:09;12.40;;;2.80;;
4424;SDS011;2225;53.568;13.266;2022-09-21T07:43:38;7.50;;;2.80;;
4424;SDS011;2225;53.568;13.266;2022-09-21T07:46:09;6.87;;;3.30;;
4424;SDS011;2225;53.568;13.266;2022-09-21T07:48:39;6.80;;;2.67;;
4424;SDS011;2225;53.568;13.266;2022-09-21T07:51:08;6.43;;;2.80;;
4424;SDS011;2225;53.568;13.266;2022-09-21T07:53:38;5.50;;;2.97;;
4424;SDS011;2225;53.568;13.266;2022-09-21T07:56:08;8.70;;;2.30;;
4424;SDS011;2225;53.568;13.266;2022-09-21T07:58:38;6.13;;;2.10;;
4424;SDS011;2225;53.568;13.266;2022-09-21T08:01:24;7.77;;;2.90;;
4424;SDS011;2225;53.568;13.266;2022-09-21T08:03:53;5.83;;;2.57;;
4424;SDS011;2225;53.568;13.266;2022-09-21T08:06:22;5.57;;;2.90;;
4424;SDS011;2225;53.568;13.266;2022-09-21T08:08:51;8.73;;;1.97;;
4424;SDS011;2225;53.568;13.266;2022-09-21T08:11:23;10.03;;;1.80;;
4424;SDS011;2225;53.568;13.266;2022-09-21T08:13:57;6.73;;;2.03;;
4424;SDS011;2225;53.568;13.266;2022-09-21T08:16:26;5.10;;;2.03;;
4424;SDS011;2225;53.568;13.266;2022-09-21T08:18:55;6.30;;;2.77;;
4424;SDS011;2225;53.568;13.266;2022-09-21T08:21:22;7.00;;;1.80;;
4424;SDS011;2225;53.568;13.266;2022-09-21T08:23:49;5.13;;;1.80;;
4424;SDS011;2225;53.568;13.266;2022-09-21T08:26:16;5.93;;;1.93;;
4424;SDS011;2225;53.568;13.266;2022-09-21T08:28:45;6.27;;;2.33;;
4424;SDS011;2225;53.568;13.266;2022-09-21T08:31:15;5.83;;;2.10;;
4424;SDS011;2225;53.568;13.266;2022-09-21T08:33:45;5.00;;;1.70;;
4424;SDS011;2225;53.568;13.266;2022-09-21T08:36:13;7.70;;;2.13;;
4424;SDS011;2225;53.568;13.266;2022-09-21T08:38:40;8.73;;;2.03;;
4424;SDS011;2225;53.568;13.266;2022-09-21T08:41:12;7.57;;;1.53;;
4424;SDS011;2225;53.568;13.266;2022-09-21T08:43:43;6.30;;;1.70;;
4424;SDS011;2225;53.568;13.266;2022-09-21T08:46:38;4.73;;;1.40;;
4424;SDS011;2225;53.568;13.266;2022-09-21T08:49:10;9.57;;;1.40;;
4424;SDS011;2225;53.568;13.266;2022-09-21T08:51:45;6.97;;;1.50;;
4424;SDS011;2225;53.568;13.266;2022-09-21T08:54:21;7.07;;;1.47;;
4424;SDS011;2225;53.568;13.266;2022-09-21T08:56:55;4.47;;;1.53;;
4424;SDS011;2225;53.568;13.266;2022-09-21T08:59:32;4.40;;;1.20;;
4424;SDS011;2225;53.568;13.266;2022-09-21T09:07:39;5.60;;;1.57;;
4424;SDS011;2225;53.568;13.266;2022-09-21T09:10:37;5.20;;;1.30;;
4424;SDS011;2225;53.568;13.266;2022-09-21T09:17:06;3.67;;;0.93;;
4424;SDS011;2225;53.568;13.266;2022-09-21T09:19:40;5.47;;;1.20;;
4424;SDS011;2225;53.568;13.266;2022-09-21T09:22:49;4.47;;;1.20;;
4424;SDS011;2225;53.568;13.266;2022-09-21T09:25:40;4.07;;;0.80;;
4424;SDS011;2225;53.568;13.266;2022-09-21T09:28:16;4.53;;;1.13;;
4424;SDS011;2225;53.568;13.266;2022-09-21T09:30:56;3.30;;;0.80;;
4424;SDS011;2225;53.568;13.266;2022-09-21T09:33:42;6.47;;;1.10;;
4424;SDS011;2225;53.568;13.266;2022-09-21T09:36:18;4.23;;;1.03;;
4424;SDS011;2225;53.568;13.266;2022-09-21T09:39:09;5.70;;;1.17;;
4424;SDS011;2225;53.568;13.266;2022-09-21T09:41:54;8.33;;;1.30;;
4424;SDS011;2225;53.568;13.266;2022-09-21T09:50:28;3.53;;;1.13;;
4424;SDS011;2225;53.568;13.266;2022-09-21T09:53:03;6.07;;;1.30;;
4424;SDS011;2225;53.568;13.266;2022-09-21T09:55:58;4.27;;;0.90;;
4424;SDS011;2225;53.568;13.266;2022-09-21T09:58:33;3.77;;;1.00;;
4424;SDS011;2225;53.568;13.266;2022-09-21T10:04:09;3.80;;;1.00;;
4424;SDS011;2225;53.568;13.266;2022-09-21T10:06:39;5.77;;;0.80;;
4424;SDS011;2225;53.568;13.266;2022-09-21T10:09:19;5.13;;;1.17;;
4424;SDS011;2225;53.568;13.266;2022-09-21T10:12:00;3.40;;;0.70;;
4424;SDS011;2225;53.568;13.266;2022-09-21T10:14:50;6.10;;;0.90;;
4424;SDS011;2225;53.568;13.266;2022-09-21T10:17:19;4.70;;;1.00;;
4424;SDS011;2225;53.568;13.266;2022-09-21T10:19:46;3.90;;;1.10;;
4424;SDS011;2225;53.568;13.266;2022-09-21T10:22:17;4.50;;;0.90;;
4424;SDS011;2225;53.568;13.266;2022-09-21T10:24:45;6.63;;;0.87;;
4424;SDS011;2225;53.568;13.266;2022-09-21T10:27:19;4.60;;;0.90;;
4424;SDS011;2225;53.568;13.266;2022-09-21T10:29:51;3.60;;;0.80;;
4424;SDS011;2225;53.568;13.266;2022-09-21T10:32:19;3.00;;;0.70;;
4424;SDS011;2225;53.568;13.266;2022-09-21T10:37:47;6.23;;;0.80;;
4424;SDS011;2225;53.568;13.266;2022-09-21T10:40:35;3.40;;;0.77;;
4424;SDS011;2225;53.568;13.266;2022-09-21T10:43:03;3.87;;;0.80;;
4424;SDS011;2225;53.568;13.266;2022-09-21T10:45:31;4.10;;;0.90;;
4424;SDS011;2225;53.568;13.266;2022-09-21T10:50:40;5.60;;;0.60;;
4424;SDS011;2225;53.568;13.266;2022-09-21T10:53:30;4.27;;;0.90;;
4424;SDS011;2225;53.568;13.266;2022-09-21T10:59:12;3.67;;;0.77;;
4424;SDS011;2225;53.568;13.266;2022-09-21T11:01:52;3.70;;;0.67;;
4424;SDS011;2225;53.568;13.266;2022-09-21T11:04:40;3.53;;;0.90;;
4424;SDS011;2225;53.568;13.266;2022-09-21T11:07:32;3.47;;;0.60;;
4424;SDS011;2225;53.568;13.266;2022-09-21T11:15:53;3.97;;;0.73;;
4424;SDS011;2225;53.568;13.266;2022-09-21T11:18:45;3.63;;;0.70;;
4424;SDS011;2225;53.568;13.266;2022-09-21T11:22:07;3.77;;;0.80;;
4424;SDS011;2225;53.568;13.266;2022-09-21T11:27:38;4.23;;;0.70;;
4424;SDS011;2225;53.568;13.266;2022-09-21T11:35:47;7.10;;;0.90;;
4424;SDS011;2225;53.568;13.266;2022-09-21T11:38:57;3.07;;;0.70;;
4424;SDS011;2225;53.568;13.266;2022-09-21T11:44:53;3.17;;;0.80;;
4424;SDS011;2225;53.568;13.266;2022-09-21T11:50:19;8.63;;;0.93;;
4424;SDS011;2225;53.568;13.266;2022-09-21T11:53:09;2.97;;;0.60;;
4424;SDS011;2225;53.568;13.266;2022-09-21T11:55:51;3.10;;;0.70;;
4424;SDS011;2225;53.568;13.266;2022-09-21T11:58:52;3.97;;;1.07;;
4424;SDS011;2225;53.568;13.266;2022-09-21T12:04:53;4.13;;;0.87;;
4424;SDS011;2225;53.568;13.266;2022-09-21T12:07:39;5.73;;;1.10;;
4424;SDS011;2225;53.568;13.266;2022-09-21T12:10:47;3.10;;;0.70;;
4424;SDS011;2225;53.568;13.266;2022-09-21T12:16:48;4.40;;;0.93;;
4424;SDS011;2225;53.568;13.266;2022-09-21T12:20:04;6.50;;;1.33;;
4424;SDS011;2225;53.568;13.266;2022-09-21T12:22:55;3.97;;;0.60;;
4424;SDS011;2225;53.568;13.266;2022-09-21T12:25:30;3.63;;;0.90;;
4424;SDS011;2225;53.568;13.266;2022-09-21T12:30:49;5.57;;;0.90;;
4424;SDS011;2225;53.568;13.266;2022-09-21T12:36:02;4.17;;;0.80;;
4424;SDS011;2225;53.568;13.266;2022-09-21T12:38:41;4.90;;;0.80;;
4424;SDS011;2225;53.568;13.266;2022-09-21T12:44:41;10.03;;;0.97;;
4424;SDS011;2225;53.568;13.266;2022-09-21T12:47:20;4.33;;;0.70;;
4424;SDS011;2225;53.568;13.266;2022-09-21T12:50:10;5.00;;;0.80;;
4424;SDS011;2225;53.568;13.266;2022-09-21T12:53:15;3.97;;;1.00;;
4424;SDS011;2225;53.568;13.266;2022-09-21T13:02:40;3.90;;;0.70;;
4424;SDS011;2225;53.568;13.266;2022-09-21T13:05:12;3.43;;;0.60;;
4424;SDS011;2225;53.568;13.266;2022-09-21T13:13:28;3.63;;;0.73;;
4424;SDS011;2225;53.568;13.266;2022-09-21T13:16:00;3.13;;;0.77;;
4424;SDS011;2225;53.568;13.266;2022-09-21T13:18:38;3.47;;;0.83;;
4424;SDS011;2225;53.568;13.266;2022-09-21T13:21:19;4.27;;;0.90;;
4424;SDS011;2225;53.568;13.266;2022-09-21T13:23:58;3.80;;;0.80;;
4424;SDS011;2225;53.568;13.266;2022-09-21T13:26:29;3.10;;;0.70;;
4424;SDS011;2225;53.568;13.266;2022-09-21T13:29:04;4.87;;;0.90;;
4424;SDS011;2225;53.568;13.266;2022-09-21T13:31:57;3.30;;;0.80;;
4424;SDS011;2225;53.568;13.266;2022-09-21T13:34:37;3.57;;;0.73;;
4424;SDS011;2225;53.568;13.266;2022-09-21T13:47:44;3.47;;;0.70;;
4424;SDS011;2225;53.568;13.266;2022-09-21T13:50:31;10.80;;;0.90;;
4424;SDS011;2225;53.568;13.266;2022-09-21T13:53:16;4.07;;;0.70;;
4424;SDS011;2225;53.568;13.266;2022-09-21T13:55:59;2.80;;;0.60;;
4424;SDS011;2225;53.568;13.266;2022-09-21T13:58:35;4.17;;;0.83;;
4424;SDS011;2225;53.568;13.266;2022-09-21T14:01:17;3.83;;;0.67;;
4424;SDS011;2225;53.568;13.266;2022-09-21T14:04:25;6.40;;;0.70;;
4424;SDS011;2225;53.568;13.266;2022-09-21T14:06:56;2.90;;;0.60;;
4424;SDS011;2225;53.568;13.266;2022-09-21T14:09:30;9.73;;;0.90;;
4424;SDS011;2225;53.568;13.266;2022-09-21T14:12:08;4.50;;;0.70;;
4424;SDS011;2225;53.568;13.266;2022-09-21T14:15:06;4.37;;;0.80;;
4424;SDS011;2225;53.568;13.266;2022-09-21T14:18:06;3.70;;;0.90;;
4424;SDS011;2225;53.568;13.266;2022-09-21T14:23:37;5.13;;;1.00;;
4424;SDS011;2225;53.568;13.266;2022-09-21T14:29:04;3.40;;;0.80;;
4424;SDS011;2225;53.568;13.266;2022-09-21T14:32:06;8.40;;;1.23;;
4424;SDS011;2225;53.568;13.266;2022-09-21T14:34:45;3.83;;;0.80;;
4424;SDS011;2225;53.568;13.266;2022-09-21T14:39:59;9.30;;;2.07;;
4424;SDS011;2225;53.568;13.266;2022-09-21T14:42:41;4.30;;;1.00;;
4424;SDS011;2225;53.568;13.266;2022-09-21T14:45:13;6.33;;;1.50;;
4424;SDS011;2225;53.568;13.266;2022-09-21T14:50:34;4.30;;;0.87;;
4424;SDS011;2225;53.568;13.266;2022-09-21T14:56:09;4.40;;;1.07;;
4424;SDS011;2225;53.568;13.266;2022-09-21T14:59:43;3.80;;;0.87;;
4424;SDS011;2225;53.568;13.266;2022-09-21T15:02:41;4.37;;;1.20;;
4424;SDS011;2225;53.568;13.266;2022-09-21T15:05:13;3.40;;;1.00;;
4424;SDS011;2225;53.568;13.266;2022-09-21T15:11:16;6.00;;;0.97;;
4424;SDS011;2225;53.568;13.266;2022-09-21T15:14:07;3.20;;;0.90;;
4424;SDS011;2225;53.568;13.266;2022-09-21T15:16:53;3.67;;;1.07;;
4424;SDS011;2225;53.568;13.266;2022-09-21T15:19:21;3.70;;;0.80;;
4424;SDS011;2225;53.568;13.266;2022-09-21T15:21:55;4.57;;;0.90;;
4424;SDS011;2225;53.568;13.266;2022-09-21T15:24:52;4.20;;;1.00;;
4424;SDS011;2225;53.568;13.266;2022-09-21T15:27:25;4.17;;;0.90;;
4424;SDS011;2225;53.568;13.266;2022-09-21T15:29:59;4.40;;;0.90;;
4424;SDS011;2225;53.568;13.266;2022-09-21T15:37:42;6.40;;;1.00;;
4424;SDS011;2225;53.568;13.266;2022-09-21T15:40:15;4.07;;;0.87;;
4424;SDS011;2225;53.568;13.266;2022-09-21T15:42:59;3.70;;;0.90;;
4424;SDS011;2225;53.568;13.266;2022-09-21T15:48:24;3.53;;;0.90;;
4424;SDS011;2225;53.568;13.266;2022-09-21T15:51:13;4.73;;;0.70;;
4424;SDS011;2225;53.568;13.266;2022-09-21T15:53:51;3.47;;;0.77;;
4424;SDS011;2225;53.568;13.266;2022-09-21T15:56:27;5.33;;;1.00;;
4424;SDS011;2225;53.568;13.266;2022-09-21T15:58:58;3.97;;;0.90;;
4424;SDS011;2225;53.568;13.266;2022-09-21T16:01:37;6.23;;;1.10;;
4424;SDS011;2225;53.568;13.266;2022-09-21T16:04:15;5.17;;;1.60;;
4424;SDS011;2225;53.568;13.266;2022-09-21T16:06:46;6.83;;;2.37;;
4424;SDS011;2225;53.568;13.266;2022-09-21T16:09:26;5.50;;;1.10;;
4424;SDS011;2225;53.568;13.266;2022-09-21T16:14:58;3.97;;;0.90;;
4424;SDS011;2225;53.568;13.266;2022-09-21T16:17:34;4.10;;;0.70;;
4424;SDS011;2225;53.568;13.266;2022-09-21T16:20:04;3.40;;;0.87;;
4424;SDS011;2225;53.568;13.266;2022-09-21T16:22:42;4.30;;;0.90;;
4424;SDS011;2225;53.568;13.266;2022-09-21T16:27:48;3.30;;;0.80;;
4424;SDS011;2225;53.568;13.266;2022-09-21T16:30:38;3.40;;;1.00;;
4424;SDS011;2225;53.568;13.266;2022-09-21T16:36:32;3.50;;;1.00;;
4424;SDS011;2225;53.568;13.266;2022-09-21T16:38:57;5.00;;;0.90;;
4424;SDS011;2225;53.568;13.266;2022-09-21T16:41:30;5.40;;;0.90;;
4424;SDS011;2225;53.568;13.266;2022-09-21T16:44:01;3.93;;;0.80;;
4424;SDS011;2225;53.568;13.266;2022-09-21T16:46:28;5.57;;;1.03;;
4424;SDS011;2225;53.568;13.266;2022-09-21T16:48:57;4.60;;;1.10;;
4424;SDS011;2225;53.568;13.266;2022-09-21T16:51:26;4.67;;;1.00;;
4424;SDS011;2225;53.568;13.266;2022-09-21T16:53:54;4.13;;;0.80;;
4424;SDS011;2225;53.568;13.266;2022-09-21T16:56:25;3.97;;;1.00;;
4424;SDS011;2225;53.568;13.266;2022-09-21T16:58:52;4.50;;;1.50;;
4424;SDS011;2225;53.568;13.266;2022-09-21T17:01:19;6.30;;;1.30;;
4424;SDS011;2225;53.568;13.266;2022-09-21T17:03:46;4.83;;;1.23;;
4424;SDS011;2225;53.568;13.266;2022-09-21T17:06:14;5.00;;;1.10;;
4424;SDS011;2225;53.568;13.266;2022-09-21T17:08:44;4.10;;;1.33;;
4424;SDS011;2225;53.568;13.266;2022-09-21T17:11:15;6.30;;;1.70;;
4424;SDS011;2225;53.568;13.266;2022-09-21T17:13:47;3.93;;;1.13;;
4424;SDS011;2225;53.568;13.266;2022-09-21T17:16:16;4.73;;;1.13;;
4424;SDS011;2225;53.568;13.266;2022-09-21T17:18:46;4.30;;;1.43;;
4424;SDS011;2225;53.568;13.266;2022-09-21T17:21:14;4.37;;;1.40;;
4424;SDS011;2225;53.568;13.266;2022-09-21T17:23:41;5.70;;;1.77;;
4424;SDS011;2225;53.568;13.266;2022-09-21T17:26:11;5.80;;;1.50;;
4424;SDS011;2225;53.568;13.266;2022-09-21T17:28:44;7.50;;;1.87;;
4424;SDS011;2225;53.568;13.266;2022-09-21T17:31:11;7.73;;;2.40;;
4424;SDS011;2225;53.568;13.266;2022-09-21T17:33:41;6.43;;;2.37;;
4424;SDS011;2225;53.568;13.266;2022-09-21T17:36:13;9.20;;;2.60;;
4424;SDS011;2225;53.568;13.266;2022-09-21T17:38:41;6.20;;;1.60;;
4424;SDS011;2225;53.568;13.266;2022-09-21T17:41:20;3.93;;;1.20;;
4424;SDS011;2225;53.568;13.266;2022-09-21T17:43:56;4.83;;;1.33;;
4424;SDS011;2225;53.568;13.266;2022-09-21T17:46:45;7.90;;;1.20;;
4424;SDS011;2225;53.568;13.266;2022-09-21T17:49:19;7.73;;;2.37;;
4424;SDS011;2225;53.568;13.266;2022-09-21T17:51:47;4.70;;;1.40;;
4424;SDS011;2225;53.568;13.266;2022-09-21T17:54:32;4.53;;;1.60;;
4424;SDS011;2225;53.568;13.266;2022-09-21T17:57:14;5.20;;;1.37;;
4424;SDS011;2225;53.568;13.266;2022-09-21T18:00:02;5.30;;;1.83;;
4424;SDS011;2225;53.568;13.266;2022-09-21T18:02:44;4.83;;;1.70;;
4424;SDS011;2225;53.568;13.266;2022-09-21T18:05:28;6.80;;;1.80;;
4424;SDS011;2225;53.568;13.266;2022-09-21T18:07:55;5.63;;;1.80;;
4424;SDS011;2225;53.568;13.266;2022-09-21T18:10:23;5.70;;;2.30;;
4424;SDS011;2225;53.568;13.266;2022-09-21T18:12:55;5.67;;;2.10;;
4424;SDS011;2225;53.568;13.266;2022-09-21T18:18:09;6.03;;;2.57;;
4424;SDS011;2225;53.568;13.266;2022-09-21T18:21:03;7.73;;;2.00;;